createdAt,value
2018-04-12T00:01:57.178Z,100147.09
2018-04-12T00:04:25.515Z,100126.27
2018-04-12T00:06:53.892Z,100127.18
2018-04-12T00:09:22.236Z,100129.78
2018-04-12T00:11:50.601Z,100130.36
2018-04-12T00:14:18.945Z,100122.70
2018-04-12T00:16:47.309Z,100120.69
2018-04-12T00:19:15.647Z,100119.70
2018-04-12T00:21:44.009Z,100115.88
2018-04-12T00:24:12.348Z,100127.72
2018-04-12T00:26:40.716Z,100114.92
2018-04-12T00:29:09.049Z,100114.94
2018-04-12T00:31:37.409Z,100110.92
2018-04-12T00:34:05.753Z,100103.98
2018-04-12T00:36:34.117Z,100095.52
2018-04-12T00:39:02.461Z,100090.30
2018-04-12T00:41:30.833Z,100093.17
2018-04-12T00:43:59.178Z,100094.73
2018-04-12T00:46:27.536Z,100090.78
2018-04-12T00:48:55.881Z,100082.14
2018-04-12T00:51:24.236Z,100077.45
2018-04-12T00:54:01.112Z,100080.08
2018-04-12T00:56:29.477Z,100087.05
2018-04-12T00:58:57.821Z,100088.42
2018-04-12T01:01:26.190Z,100085.44
2018-04-12T01:03:54.528Z,100082.34
2018-04-12T01:06:22.893Z,100082.93
2018-04-12T01:08:51.236Z,100073.98
2018-04-12T01:11:19.613Z,100076.05
2018-04-12T01:13:47.957Z,100074.34
2018-04-12T01:16:16.316Z,100065.86
2018-04-12T01:18:44.660Z,100068.03
2018-04-12T01:21:13.029Z,100070.14
2018-04-12T01:23:41.369Z,100065.00
2018-04-12T01:26:09.736Z,100063.75
2018-04-12T01:28:38.086Z,100068.66
2018-04-12T01:31:06.448Z,100064.71
2018-04-12T01:33:34.785Z,100068.16
2018-04-12T01:36:03.152Z,100058.68
2018-04-12T01:38:31.497Z,100052.78
2018-04-12T01:40:59.846Z,100045.40
2018-04-12T01:43:28.217Z,100039.84
2018-04-12T01:45:56.556Z,100045.40
2018-04-12T01:48:24.916Z,100040.19
2018-04-12T01:50:53.272Z,100034.64
2018-04-12T01:53:21.640Z,100028.58
2018-04-12T01:55:49.976Z,100023.06
2018-04-12T01:58:18.345Z,100020.84
2018-04-12T02:00:46.689Z,100025.42
2018-04-12T02:03:15.060Z,100008.36
2018-04-12T02:05:43.405Z,99999.33
2018-04-12T02:08:11.761Z,100015.13
2018-04-12T02:10:40.101Z,99998.91
2018-04-12T02:13:08.460Z,99995.97
2018-04-12T02:15:36.793Z,99986.62
2018-04-12T02:18:05.148Z,99985.84
2018-04-12T02:20:33.476Z,99989.62
2018-04-12T02:23:01.836Z,100002.71
2018-04-12T02:25:30.176Z,100013.09
2018-04-12T02:27:58.538Z,99999.22
2018-04-12T02:30:26.872Z,99954.13
2018-04-12T02:32:55.229Z,99984.02
2018-04-12T02:35:23.566Z,100003.16
2018-04-12T02:37:51.916Z,99998.52
2018-04-12T02:40:20.256Z,99989.39
2018-04-12T02:42:48.613Z,100002.34
2018-04-12T02:45:16.941Z,99996.95
2018-04-12T02:47:46.169Z,100001.33
2018-04-12T02:50:14.507Z,100009.90
2018-04-12T02:52:42.874Z,100001.36
2018-04-12T02:55:11.223Z,99996.77
2018-04-12T02:57:39.583Z,99991.66
2018-04-12T03:00:07.909Z,99995.25
2018-04-12T03:02:36.264Z,99992.80
2018-04-12T03:05:04.594Z,99993.45
2018-04-12T03:07:32.946Z,99999.34
2018-04-12T03:10:01.293Z,99994.66
2018-04-12T03:12:29.625Z,99990.84
2018-04-12T03:14:57.975Z,99991.03
2018-04-12T03:17:26.303Z,99993.52
2018-04-12T03:19:54.649Z,99987.11
2018-04-12T03:22:22.980Z,99988.64
2018-04-12T03:24:51.328Z,99982.24
2018-04-12T03:27:19.653Z,99989.16
2018-04-12T03:29:48.028Z,99985.28
2018-04-12T03:32:16.337Z,99984.84
2018-04-12T03:34:44.681Z,99983.14
2018-04-12T03:37:13.012Z,99982.30
2018-04-12T03:39:41.365Z,99976.52
2018-04-12T03:42:09.738Z,99975.23
2018-04-12T03:44:38.065Z,99978.13
2018-04-12T03:47:06.401Z,99967.98
2018-04-12T03:49:34.810Z,99965.56
2018-04-12T03:52:03.080Z,99965.69
2018-04-12T03:54:31.433Z,99968.34
2018-04-12T03:56:59.762Z,99968.18
2018-04-12T03:59:28.110Z,99965.84
2018-04-12T04:01:56.436Z,99959.09
2018-04-12T04:04:24.789Z,99970.36
2018-04-12T04:06:53.119Z,99958.94
2018-04-12T04:09:21.469Z,99949.84
2018-04-12T04:11:49.798Z,99946.97
2018-04-12T04:14:29.922Z,99944.66
2018-04-12T04:17:10.160Z,99950.80
2018-04-12T04:19:50.257Z,99949.53
2018-04-12T04:22:18.596Z,99955.08
2018-04-12T04:24:46.954Z,99954.98
2018-04-12T04:27:15.282Z,99955.30
2018-04-12T04:29:43.626Z,99962.98
2018-04-12T04:32:11.957Z,99959.64
2018-04-12T04:34:40.324Z,99959.58
2018-04-12T04:37:08.665Z,99964.16
2018-04-12T04:39:37.333Z,99958.98
2018-04-12T04:42:05.665Z,99958.22
2018-04-12T04:44:34.008Z,99959.56
2018-04-12T04:47:02.337Z,99962.22
2018-04-12T04:49:30.750Z,99959.12
2018-04-12T04:51:59.084Z,99960.27
2018-04-12T04:54:27.433Z,99947.83
2018-04-12T04:56:55.776Z,99949.62
2018-04-12T04:59:24.121Z,99952.88
2018-04-12T05:01:52.465Z,99953.28
2018-04-12T05:04:20.813Z,99955.57
2018-04-12T05:06:49.144Z,99959.66
2018-04-12T05:09:17.490Z,99966.98
2018-04-12T05:11:45.822Z,99960.94
2018-04-12T05:14:14.169Z,99968.89
2018-04-12T05:16:42.501Z,99963.34
2018-04-12T05:19:10.845Z,99959.17
2018-04-12T05:21:39.167Z,99951.75
2018-04-12T05:24:07.521Z,99958.12
2018-04-12T05:26:35.849Z,99954.75
2018-04-12T05:29:04.184Z,99951.69
2018-04-12T05:31:32.504Z,99968.38
2018-04-12T05:34:00.898Z,99962.66
2018-04-12T05:36:29.212Z,99963.25
2018-04-12T05:38:57.529Z,99966.76
2018-04-12T05:41:25.889Z,99961.63
2018-04-12T05:43:54.224Z,99962.23
2018-04-12T05:46:22.613Z,99966.97
2018-04-12T05:48:50.893Z,99958.03
2018-04-12T05:51:19.244Z,99953.25
2018-04-12T05:53:47.577Z,99952.59
2018-04-12T05:56:15.922Z,99940.35
2018-04-12T05:58:44.257Z,99945.61
2018-04-12T06:01:12.600Z,99944.95
2018-04-12T06:03:41.076Z,99932.34
2018-04-12T06:06:09.444Z,99931.20
2018-04-12T06:08:37.773Z,99932.52
2018-04-12T06:11:06.120Z,99928.70
2018-04-12T06:13:34.465Z,99931.64
2018-04-12T06:16:03.111Z,99931.55
2018-04-12T06:18:31.433Z,99938.41
2018-04-12T06:20:59.776Z,99927.33
2018-04-12T06:23:28.101Z,99927.92
2018-04-12T06:25:56.461Z,99927.90
2018-04-12T06:28:24.820Z,99929.04
2018-04-12T06:30:53.205Z,99920.17
2018-04-12T06:33:21.528Z,99915.82
2018-04-12T06:35:49.903Z,99908.55
2018-04-12T06:38:18.222Z,99903.39
2018-04-12T06:40:46.569Z,99903.38
2018-04-12T06:43:14.894Z,99894.95
2018-04-12T06:45:43.232Z,99907.05
2018-04-12T06:48:11.561Z,99891.66
2018-04-12T06:50:39.911Z,99893.28
2018-04-12T06:53:08.232Z,99898.27
2018-04-12T06:55:36.580Z,99910.63
2018-04-12T06:58:04.910Z,99901.93
2018-04-12T07:00:33.247Z,99902.87
2018-04-12T07:03:01.577Z,99909.05
2018-04-12T07:05:29.921Z,99906.84
2018-04-12T07:07:58.241Z,99906.69
2018-04-12T07:10:26.602Z,99900.13
2018-04-12T07:12:54.928Z,99898.98
2018-04-12T07:15:23.286Z,99900.62
2018-04-12T07:17:51.621Z,99895.34
2018-04-12T07:20:19.976Z,99893.27
2018-04-12T07:22:48.304Z,99911.52
2018-04-12T07:25:16.660Z,99905.10
2018-04-12T07:27:44.992Z,99910.59
2018-04-12T07:30:13.349Z,99905.80
2018-04-12T07:32:41.681Z,99913.08
2018-04-12T07:35:10.033Z,99914.81
2018-04-12T07:37:38.369Z,99915.69
2018-04-12T07:40:06.721Z,99901.27
2018-04-12T07:42:35.069Z,99902.30
2018-04-12T07:45:03.402Z,99902.73
2018-04-12T07:47:31.757Z,99899.35
2018-04-12T07:50:00.084Z,99898.45
2018-04-12T07:52:28.436Z,99896.54
2018-04-12T07:54:56.764Z,99894.72
2018-04-12T07:57:25.125Z,99897.42
2018-04-12T07:59:53.460Z,99892.76
2018-04-12T08:02:21.813Z,99903.77
2018-04-12T08:04:50.149Z,99896.04
2018-04-12T08:07:18.506Z,99902.13
2018-04-12T08:09:46.836Z,99907.23
2018-04-12T08:12:15.189Z,99902.56
2018-04-12T08:14:43.520Z,99904.70
2018-04-12T08:17:11.872Z,99903.42
2018-04-12T08:19:40.205Z,99901.25
2018-04-12T08:22:08.565Z,99900.73
2018-04-12T08:24:36.901Z,99907.91
2018-04-12T08:27:05.248Z,99908.31
2018-04-12T08:29:33.580Z,99900.86
2018-04-12T08:32:01.940Z,99901.95
2018-04-12T08:34:30.297Z,99899.67
2018-04-12T08:36:58.628Z,99894.45
2018-04-12T08:39:26.965Z,99882.38
2018-04-12T08:41:55.321Z,99869.91
2018-04-12T08:44:23.648Z,99865.77
2018-04-12T08:46:52.009Z,99859.83
2018-04-12T08:49:20.344Z,99854.26
2018-04-12T08:51:48.699Z,99855.05
2018-04-12T08:54:17.033Z,99863.59
2018-04-12T08:56:45.389Z,99854.73
2018-04-12T08:59:13.716Z,99857.69
2018-04-12T09:01:42.069Z,99860.81
2018-04-12T09:04:10.410Z,99851.97
2018-04-12T09:06:38.755Z,99851.65
2018-04-12T09:09:07.083Z,99843.83
2018-04-12T09:11:35.440Z,99835.80
2018-04-12T09:14:03.768Z,99828.47
2018-04-12T09:16:32.129Z,99811.62
2018-04-12T09:19:00.457Z,99802.55
2018-04-12T09:21:28.817Z,99801.45
2018-04-12T09:23:57.152Z,99800.31
2018-04-12T09:26:25.508Z,99801.61
2018-04-12T09:28:53.841Z,99804.20
2018-04-12T09:31:22.201Z,99798.86
2018-04-12T09:33:50.534Z,99796.13
2018-04-12T09:36:18.880Z,99793.52
2018-04-12T09:38:47.209Z,99792.45
2018-04-12T09:41:15.581Z,99792.96
2018-04-12T09:43:43.905Z,99794.99
2018-04-12T09:46:12.250Z,99793.48
2018-04-12T09:48:41.180Z,99792.81
2018-04-12T09:51:09.703Z,99801.64
2018-04-12T09:53:38.108Z,99810.30
2018-04-12T09:56:06.453Z,99809.27
2018-04-12T09:58:34.815Z,99808.81
2018-04-12T10:01:08.855Z,99797.02
2018-04-12T10:03:37.213Z,99798.14
2018-04-12T10:06:05.904Z,99800.50
2018-04-12T10:08:34.260Z,99793.01
2018-04-12T10:11:02.593Z,99795.30
2018-04-12T10:13:30.957Z,99797.02
2018-04-12T10:15:59.287Z,99799.48
2018-04-12T10:18:27.730Z,99803.19
2018-04-12T10:20:56.065Z,99804.30
2018-04-12T10:23:24.434Z,99801.97
2018-04-12T10:25:52.765Z,99790.00
2018-04-12T10:28:21.120Z,99791.39
2018-04-12T10:30:49.457Z,99783.50
2018-04-12T10:33:17.813Z,99785.15
2018-04-12T10:35:46.153Z,99785.88
2018-04-12T10:38:14.514Z,99790.04
2018-04-12T10:40:42.852Z,99797.16
2018-04-12T10:43:11.205Z,99802.16
2018-04-12T10:45:39.537Z,99798.70
2018-04-12T10:48:07.884Z,99801.40
2018-04-12T10:50:36.213Z,99812.60
2018-04-12T10:53:04.556Z,99804.30
2018-04-12T10:55:32.893Z,99816.03
2018-04-12T10:58:01.245Z,99813.44
2018-04-12T11:00:29.584Z,99817.59
2018-04-12T11:02:57.981Z,99808.31
2018-04-12T11:05:26.313Z,99798.33
2018-04-12T11:07:54.672Z,99799.94
2018-04-12T11:10:23.002Z,99797.95
2018-04-12T11:12:51.356Z,99796.16
2018-04-12T11:15:19.703Z,99788.89
2018-04-12T11:17:48.102Z,99784.77
2018-04-12T11:20:16.385Z,99778.94
2018-04-12T11:22:44.736Z,99768.75
2018-04-12T11:25:13.069Z,99776.88
2018-04-12T11:27:41.436Z,99774.18
2018-04-12T11:30:10.372Z,99780.47
2018-04-12T11:32:38.762Z,99774.44
2018-04-12T11:35:07.089Z,99784.06
2018-04-12T11:37:35.452Z,99787.36
2018-04-12T11:40:03.785Z,99786.66
2018-04-12T11:42:32.145Z,99793.30
2018-04-12T11:45:00.472Z,99794.47
2018-04-12T11:47:28.829Z,99792.06
2018-04-12T11:49:57.197Z,99781.59
2018-04-12T11:52:25.945Z,99788.09
2018-04-12T11:54:54.309Z,99784.60
2018-04-12T11:57:22.626Z,99784.20
2018-04-12T11:59:50.976Z,99770.63
2018-04-12T12:02:19.419Z,99762.95
2018-04-12T12:04:47.778Z,99753.11
2018-04-12T12:07:16.112Z,99748.64
2018-04-12T12:09:44.737Z,99728.61
2018-04-12T12:12:13.225Z,99718.25
2018-04-12T12:14:44.042Z,99721.38
2018-04-12T12:17:12.370Z,99719.08
2018-04-12T12:19:40.730Z,99729.99
2018-04-12T12:22:09.073Z,99737.61
2018-04-12T12:24:37.425Z,99735.44
2018-04-12T12:27:05.761Z,99720.06
2018-04-12T12:29:34.120Z,99724.39
2018-04-12T12:32:02.444Z,99710.00
2018-04-12T12:34:30.793Z,99701.80
2018-04-12T12:36:59.120Z,99694.94
2018-04-12T12:39:27.506Z,99680.99
2018-04-12T12:41:55.988Z,99691.00
2018-04-12T12:44:24.502Z,99687.92
2018-04-12T12:46:52.832Z,99682.55
2018-04-12T12:49:21.176Z,99680.85
2018-04-12T12:51:49.500Z,99691.91
2018-04-12T12:54:17.852Z,99685.48
2018-04-12T12:56:46.180Z,99681.48
2018-04-12T12:59:14.524Z,99681.05
2018-04-12T13:01:42.855Z,99678.70
2018-04-12T13:04:11.199Z,99667.40
2018-04-12T13:06:39.524Z,99667.31
2018-04-12T13:09:07.875Z,99665.31
2018-04-12T13:11:36.196Z,99652.50
2018-04-12T13:14:04.549Z,99643.89
2018-04-12T13:16:33.800Z,99642.61
2018-04-12T13:19:02.149Z,99648.51
2018-04-12T13:21:30.484Z,99644.91
2018-04-12T13:23:58.857Z,99641.53
2018-04-12T13:26:27.190Z,99633.05
2018-04-12T13:28:55.542Z,99646.17
2018-04-12T13:31:23.863Z,99632.28
2018-04-12T13:33:52.212Z,99639.50
2018-04-12T13:36:20.737Z,99637.67
2018-04-12T13:38:49.572Z,99641.58
2018-04-12T13:41:17.903Z,99631.17
2018-04-12T13:43:46.265Z,99643.05
2018-04-12T13:46:14.591Z,99628.35
2018-04-12T13:48:42.945Z,99635.05
2018-04-12T13:51:11.272Z,99621.95
2018-04-12T13:53:39.600Z,99616.69
2018-04-12T13:56:07.958Z,99615.97
2018-04-12T13:58:36.296Z,99608.09
2018-04-12T14:01:04.648Z,99610.14
2018-04-12T14:03:32.981Z,99605.84
2018-04-12T14:06:01.952Z,99598.16
2018-04-12T14:08:30.269Z,99609.34
2018-04-12T14:10:58.664Z,99593.84
2018-04-12T14:13:26.978Z,99595.75
2018-04-12T14:15:55.354Z,99595.17
2018-04-12T14:18:23.680Z,99597.50
2018-04-12T14:20:52.032Z,99609.23
2018-04-12T14:23:20.361Z,99609.47
2018-04-12T14:25:48.717Z,99612.78
2018-04-12T14:28:17.049Z,99601.02
2018-04-12T14:30:45.405Z,99602.53
2018-04-12T14:33:13.736Z,99599.70
2018-04-12T14:35:42.084Z,99610.28
2018-04-12T14:38:10.513Z,99624.86
2018-04-12T14:40:38.970Z,99617.01
2018-04-12T14:43:07.317Z,99610.77
2018-04-12T14:45:35.789Z,99617.45
2018-04-12T14:48:04.135Z,99608.80
2018-04-12T14:50:32.525Z,99608.31
2018-04-12T14:53:00.860Z,99599.38
2018-04-12T14:55:29.217Z,99596.73
2018-04-12T14:57:57.549Z,99589.17
2018-04-12T15:00:25.913Z,99577.39
2018-04-12T15:02:54.253Z,99588.95
2018-04-12T15:05:22.600Z,99594.09
2018-04-12T15:07:50.933Z,99595.44
2018-04-12T15:10:19.287Z,99588.05
2018-04-12T15:12:47.812Z,99580.48
2018-04-12T15:15:16.156Z,99579.71
2018-04-12T15:17:44.485Z,99580.64
2018-04-12T15:20:12.834Z,99581.22
2018-04-12T15:22:41.172Z,99578.30
2018-04-12T15:25:09.593Z,99580.98
2018-04-12T15:27:37.921Z,99585.62
2018-04-12T15:30:06.293Z,99572.39
2018-04-12T15:32:34.632Z,99573.13
2018-04-12T15:35:02.992Z,99554.13
2018-04-12T15:37:31.322Z,99558.53
2018-04-12T15:39:59.678Z,99568.41
2018-04-12T15:42:28.020Z,99558.22
2018-04-12T15:44:56.368Z,99556.63
2018-04-12T15:47:24.703Z,99561.00
2018-04-12T15:49:53.057Z,99545.60
2018-04-12T15:52:21.383Z,99538.59
2018-04-12T15:54:49.712Z,99545.27
2018-04-12T15:57:18.064Z,99545.27
2018-04-12T15:59:46.398Z,99549.86
2018-04-12T16:02:14.753Z,99544.63
2018-04-12T16:04:43.081Z,99555.24
2018-04-12T16:07:11.434Z,99559.89
2018-04-12T16:09:39.760Z,99571.34
2018-04-12T16:12:08.113Z,99569.90
2018-04-12T16:14:36.449Z,99561.32
2018-04-12T16:17:04.808Z,99555.77
2018-04-12T16:19:33.140Z,99559.09
2018-04-12T16:22:01.493Z,99559.61
2018-04-12T16:24:29.820Z,99560.30
2018-04-12T16:26:58.233Z,99546.81
2018-04-12T16:29:26.576Z,99551.95
2018-04-12T16:31:54.936Z,99552.63
2018-04-12T16:34:23.260Z,99545.95
2018-04-12T16:36:51.608Z,99551.06
2018-04-12T16:39:20.138Z,99550.88
2018-04-12T16:41:48.478Z,99555.25
2018-04-12T16:44:16.809Z,99562.39
2018-04-12T16:46:45.649Z,99566.00
2018-04-12T16:49:13.981Z,99572.31
2018-04-12T16:51:42.330Z,99568.28
2018-04-12T16:54:10.661Z,99575.51
2018-04-12T16:56:40.013Z,99576.68
2018-04-12T16:59:08.344Z,99579.05
2018-04-12T17:01:36.689Z,99578.30
2018-04-12T17:04:05.017Z,99571.38
2018-04-12T17:06:33.370Z,99576.39
2018-04-12T17:09:01.697Z,99579.27
2018-04-12T17:11:30.282Z,99579.41
2018-04-12T17:13:58.625Z,99574.02
2018-04-12T17:16:27.022Z,99579.13
2018-04-12T17:18:55.385Z,99575.59
2018-04-12T17:21:23.750Z,99580.94
2018-04-12T17:23:52.087Z,99576.39
2018-04-12T17:26:20.437Z,99580.52
2018-04-12T17:28:48.780Z,99583.76
2018-04-12T17:31:17.151Z,99598.49
2018-04-12T17:33:45.471Z,99600.94
2018-04-12T17:36:13.821Z,99604.50
2018-04-12T17:38:42.163Z,99599.34
2018-04-12T17:41:10.509Z,99600.77
2018-04-12T17:43:38.844Z,99601.14
2018-04-12T17:46:09.153Z,99601.23
2018-04-12T17:48:37.482Z,99599.98
2018-04-12T17:51:05.842Z,99604.98
2018-04-12T17:53:34.168Z,99605.67
2018-04-12T17:56:02.533Z,99596.76
2018-04-12T17:58:30.865Z,99603.00
2018-04-12T18:00:59.203Z,99594.66
2018-04-12T18:03:28.335Z,99599.28
2018-04-12T18:05:56.726Z,99598.67
2018-04-12T18:08:25.025Z,99604.56
2018-04-12T18:10:53.371Z,99605.25
2018-04-12T18:13:21.720Z,99604.17
2018-04-12T18:15:50.061Z,99607.91
2018-04-12T18:18:18.416Z,99615.62
2018-04-12T18:20:46.744Z,99618.48
2018-04-12T18:23:16.156Z,99623.72
2018-04-12T18:25:44.488Z,99627.53
2018-04-12T18:28:12.854Z,99630.14
2018-04-12T18:30:41.177Z,99637.50
2018-04-12T18:33:09.537Z,99639.98
2018-04-12T18:35:37.864Z,99640.32
2018-04-12T18:38:06.218Z,99641.75
2018-04-12T18:40:34.549Z,99644.89
2018-04-12T18:43:03.705Z,99647.11
2018-04-12T18:45:32.032Z,99651.58
2018-04-12T18:48:00.380Z,99663.67
2018-04-12T18:50:28.714Z,99662.77
2018-04-12T18:52:57.061Z,99665.52
2018-04-12T18:55:25.388Z,99667.73
2018-04-12T18:57:53.744Z,99665.05
2018-04-12T19:00:22.081Z,99662.72
2018-04-12T19:02:51.336Z,99671.37
2018-04-12T19:05:19.677Z,99671.63
2018-04-12T19:07:48.029Z,99671.16
2018-04-12T19:10:16.360Z,99668.11
2018-04-12T19:12:44.712Z,99669.82
2018-04-12T19:15:13.044Z,99671.74
2018-04-12T19:17:41.392Z,99671.58
2018-04-12T19:20:09.722Z,99670.74
2018-04-12T19:22:39.008Z,99672.37
2018-04-12T19:25:07.353Z,99673.08
2018-04-12T19:27:35.768Z,99674.92
2018-04-12T19:30:04.037Z,99676.55
2018-04-12T19:32:33.158Z,99672.87
2018-04-12T19:35:01.513Z,99667.90
2018-04-12T19:37:29.860Z,99666.23
2018-04-12T19:39:58.196Z,99661.00
2018-04-12T19:42:26.595Z,99663.22
2018-04-12T19:44:54.877Z,99663.38
2018-04-12T19:47:23.260Z,99666.52
2018-04-12T19:49:52.720Z,99660.38
2018-04-12T19:52:21.068Z,99660.13
2018-04-12T19:54:49.416Z,99658.56
2018-04-12T19:57:17.785Z,99657.06
2018-04-12T19:59:46.116Z,99650.06
2018-04-12T20:02:15.176Z,99642.30
2018-04-12T20:04:43.508Z,99640.00
2018-04-12T20:07:11.835Z,99643.09
2018-04-12T20:09:40.189Z,99643.05
2018-04-12T20:12:08.516Z,99641.44
2018-04-12T20:14:36.866Z,99637.38
2018-04-12T20:17:05.364Z,99632.18
2018-04-12T20:19:33.755Z,99627.05
2018-04-12T20:22:03.125Z,99628.35
2018-04-12T20:24:32.845Z,99625.13
2018-04-12T20:27:01.620Z,99628.91
2018-04-12T20:29:29.978Z,99629.53
2018-04-12T20:31:58.300Z,99631.53
2018-04-12T20:34:26.652Z,99628.27
2018-04-12T20:36:54.981Z,99627.05
2018-04-12T20:39:23.330Z,99628.05
2018-04-12T20:41:51.665Z,99630.67
2018-04-12T20:44:20.020Z,99636.05
2018-04-12T20:46:48.345Z,99633.68
2018-04-12T20:49:16.698Z,99631.50
2018-04-12T20:51:45.033Z,99629.62
2018-04-12T20:54:13.376Z,99635.25
2018-04-12T20:56:41.768Z,99628.98
2018-04-12T20:59:10.117Z,99636.50
2018-04-12T21:01:38.444Z,99626.92
2018-04-12T21:04:06.801Z,99638.23
2018-04-12T21:06:35.128Z,99635.01
2018-04-12T21:09:03.483Z,99639.88
2018-04-12T21:11:31.821Z,99645.33
2018-04-12T21:14:00.362Z,99645.61
2018-04-12T21:16:29.671Z,99648.89
2018-04-12T21:18:58.023Z,99653.20
2018-04-12T21:21:26.352Z,99655.83
2018-04-12T21:23:54.696Z,99661.11
2018-04-12T21:26:23.072Z,99658.48
2018-04-12T21:28:51.381Z,99660.89
2018-04-12T21:31:19.713Z,99664.23
2018-04-12T21:33:48.065Z,99647.66
2018-04-12T21:36:16.397Z,99649.18
2018-04-12T21:38:44.752Z,99651.69
2018-04-12T21:41:13.724Z,99665.15
2018-04-12T21:43:42.077Z,99660.70
2018-04-12T21:46:10.408Z,99649.41
2018-04-12T21:48:38.769Z,99654.47
2018-04-12T21:51:07.093Z,99642.67
2018-04-12T21:53:35.436Z,99644.47
2018-04-12T21:56:03.764Z,99651.61
2018-04-12T21:58:32.125Z,99646.82
2018-04-12T22:01:00.449Z,99637.31
2018-04-12T22:03:28.796Z,99629.38
2018-04-12T22:05:57.130Z,99622.30
2018-04-12T22:08:25.502Z,99623.55
2018-04-12T22:10:53.823Z,99615.95
2018-04-12T22:13:22.161Z,99618.16
2018-04-12T22:15:50.489Z,99615.72
2018-04-12T22:18:18.809Z,99619.07
2018-04-12T22:20:47.157Z,99621.96
2018-04-12T22:23:15.488Z,99625.19
2018-04-12T22:25:43.833Z,99619.75
2018-04-12T22:28:12.152Z,99623.06
2018-04-12T22:30:40.497Z,99625.26
2018-04-12T22:33:08.820Z,99628.14
2018-04-12T22:35:37.160Z,99625.93
2018-04-12T22:38:05.486Z,99626.04
2018-04-12T22:40:33.827Z,99634.67
2018-04-12T22:43:02.157Z,99634.07
2018-04-12T22:45:30.500Z,99636.31
2018-04-12T22:47:58.824Z,99644.59
2018-04-12T22:50:27.174Z,99652.92
2018-04-12T22:52:56.336Z,99656.95
2018-04-12T22:55:24.684Z,99651.66
2018-04-12T22:57:53.005Z,99656.16
2018-04-12T23:00:21.348Z,99658.22
2018-04-12T23:02:49.672Z,99661.16
2018-04-12T23:05:18.017Z,99664.05
2018-04-12T23:07:46.339Z,99658.09
2018-04-12T23:10:14.685Z,99661.79
2018-04-12T23:12:43.009Z,99667.06
2018-04-12T23:15:11.352Z,99703.11
2018-04-12T23:17:39.680Z,99746.72
2018-04-12T23:20:08.019Z,99750.08
2018-04-12T23:22:36.385Z,99750.61
2018-04-12T23:25:04.717Z,99765.63
2018-04-12T23:27:33.046Z,99761.34
2018-04-12T23:30:01.381Z,99766.73
2018-04-12T23:32:29.704Z,99775.53
2018-04-12T23:34:58.048Z,99785.73
2018-04-12T23:37:26.556Z,99787.06
2018-04-12T23:39:54.904Z,99795.13
2018-04-12T23:42:23.220Z,99806.62
2018-04-12T23:44:51.569Z,99815.13
2018-04-12T23:47:19.905Z,99825.48
2018-04-12T23:49:48.256Z,99822.75
2018-04-12T23:52:16.576Z,99828.89
2018-04-12T23:54:44.929Z,99828.58
2018-04-12T23:57:13.256Z,99838.00
2018-04-12T23:59:41.600Z,99828.55
